createdAt,value
2019-02-27T00:02:02.189Z,43.53
2019-02-27T00:04:35.546Z,45.58
2019-02-27T00:07:07.697Z,46.37
2019-02-27T00:09:39.417Z,45.43
2019-02-27T00:12:11.089Z,42.53
2019-02-27T00:14:42.450Z,45.17
2019-02-27T00:17:15.087Z,43.77
2019-02-27T00:19:47.098Z,46.57
2019-02-27T00:22:18.537Z,51.13
2019-02-27T00:24:50.242Z,45.77
2019-02-27T00:27:21.610Z,45.27
2019-02-27T00:29:53.645Z,43.90
2019-02-27T00:32:25.828Z,49.63
2019-02-27T00:34:57.448Z,47.00
2019-02-27T00:37:29.177Z,50.57
2019-02-27T00:40:05.354Z,50.83
2019-02-27T00:42:34.735Z,47.35
2019-02-27T00:45:07.063Z,46.83
2019-02-27T00:47:40.238Z,45.28
2019-02-27T00:50:11.545Z,48.08
2019-02-27T00:52:42.940Z,47.70
2019-02-27T00:55:14.765Z,47.13
2019-02-27T00:57:46.382Z,49.07
2019-02-27T01:00:18.735Z,50.87
2019-02-27T01:02:52.641Z,45.23
2019-02-27T01:05:23.960Z,46.80
2019-02-27T01:07:55.270Z,43.37
2019-02-27T01:10:27.470Z,45.47
2019-02-27T01:12:58.911Z,48.13
2019-02-27T01:15:30.567Z,47.03
2019-02-27T01:18:02.553Z,45.33
2019-02-27T01:20:34.591Z,46.45
2019-02-27T01:23:11.047Z,45.23
2019-02-27T01:25:42.225Z,43.77
2019-02-27T01:28:14.197Z,46.70
2019-02-27T01:30:45.502Z,45.80
2019-02-27T01:33:17.646Z,50.17
2019-02-27T01:35:51.314Z,44.47
2019-02-27T01:38:21.898Z,47.37
2019-02-27T01:40:53.895Z,43.07
2019-02-27T01:43:25.727Z,50.03
2019-02-27T01:45:57.863Z,41.03
2019-02-27T01:48:29.660Z,48.33
2019-02-27T01:51:00.972Z,43.90
2019-02-27T01:53:32.282Z,45.40
2019-02-27T01:56:03.930Z,50.38
2019-02-27T01:58:35.248Z,44.57
2019-02-27T02:01:07.435Z,44.63
2019-02-27T02:03:38.786Z,44.47
2019-02-27T02:06:10.214Z,44.17
2019-02-27T02:08:41.773Z,47.13
2019-02-27T02:11:13.581Z,42.87
2019-02-27T02:13:58.253Z,43.47
2019-02-27T02:17:27.109Z,44.42
2019-02-27T02:21:21.075Z,38.83
2019-02-27T02:24:54.838Z,41.33
2019-02-27T02:28:15.634Z,42.40
2019-02-27T02:31:41.178Z,41.07
2019-02-27T02:34:50.203Z,41.70
2019-02-27T02:37:48.958Z,42.87
2019-02-27T02:41:10.246Z,43.27
2019-02-27T02:44:58.504Z,43.98
2019-02-27T02:48:41.405Z,42.67
2019-02-27T02:51:58.098Z,48.17
2019-02-27T02:55:13.451Z,48.87
2019-02-27T02:58:53.546Z,45.20
2019-02-27T03:01:52.071Z,41.83
2019-02-27T03:05:33.787Z,40.40
2019-02-27T03:08:47.401Z,42.40
2019-02-27T03:12:12.695Z,44.47
2019-02-27T03:15:31.896Z,42.07
2019-02-27T03:19:05.020Z,40.83
2019-02-27T03:22:10.126Z,40.97
2019-02-27T03:25:25.624Z,39.77
2019-02-27T03:28:51.006Z,45.70
2019-02-27T03:32:23.373Z,43.30
2019-02-27T03:35:51.968Z,40.47
2019-02-27T03:39:17.992Z,45.47
2019-02-27T03:42:55.454Z,42.47
2019-02-27T03:46:08.446Z,43.60
2019-02-27T03:49:19.681Z,40.57
2019-02-27T03:52:37.434Z,44.90
2019-02-27T03:55:58.278Z,42.83
2019-02-27T03:59:27.165Z,40.33
2019-02-27T04:02:23.567Z,45.30
2019-02-27T04:06:11.695Z,47.40
2019-02-27T04:08:59.593Z,43.77
2019-02-27T04:11:31.219Z,42.30
2019-02-27T04:14:05.570Z,43.50
2019-02-27T04:16:38.146Z,40.90
2019-02-27T04:19:10.220Z,41.93
2019-02-27T04:21:42.011Z,42.33
2019-02-27T04:24:13.739Z,42.47
2019-02-27T04:26:45.260Z,37.40
2019-02-27T04:29:16.585Z,40.63
2019-02-27T04:31:48.217Z,36.73
2019-02-27T04:34:19.584Z,36.67
2019-02-27T04:36:50.969Z,38.40
2019-02-27T04:39:22.301Z,39.90
2019-02-27T04:41:53.941Z,38.03
2019-02-27T04:44:25.428Z,44.63
2019-02-27T04:46:57.114Z,39.50
2019-02-27T04:49:28.629Z,38.77
2019-02-27T04:51:59.934Z,45.77
2019-02-27T04:54:35.066Z,42.87
2019-02-27T04:57:06.486Z,46.07
2019-02-27T04:59:40.043Z,42.60
2019-02-27T05:02:12.088Z,42.87
2019-02-27T05:04:44.560Z,46.30
2019-02-27T05:07:20.103Z,41.42
2019-02-27T05:09:49.240Z,47.60
2019-02-27T05:12:20.608Z,44.03
2019-02-27T05:14:53.256Z,42.90
2019-02-27T05:17:24.655Z,46.08
2019-02-27T05:19:56.003Z,43.07
2019-02-27T05:22:27.500Z,40.63
2019-02-27T05:24:58.848Z,42.13
2019-02-27T05:27:30.186Z,45.13
2019-02-27T05:30:01.510Z,43.47
2019-02-27T05:32:33.207Z,57.30
2019-02-27T05:35:04.950Z,45.93
2019-02-27T05:37:39.258Z,46.48
2019-02-27T05:40:10.113Z,44.53
2019-02-27T05:42:41.469Z,47.23
2019-02-27T05:45:14.032Z,42.13
2019-02-27T05:47:46.010Z,43.30
2019-02-27T05:50:17.408Z,42.70
2019-02-27T05:52:49.619Z,44.43
2019-02-27T05:55:21.151Z,47.17
2019-02-27T05:57:52.440Z,41.17
2019-02-27T06:00:24.060Z,44.17
2019-02-27T06:02:56.834Z,40.57
2019-02-27T06:05:28.640Z,44.50
2019-02-27T06:08:02.048Z,41.87
2019-02-27T06:10:33.062Z,47.67
2019-02-27T06:13:04.502Z,43.97
2019-02-27T06:15:35.859Z,46.57
2019-02-27T06:18:07.265Z,48.03
2019-02-27T06:20:38.925Z,53.93
2019-02-27T06:23:12.270Z,50.38
2019-02-27T06:25:43.631Z,45.10
2019-02-27T06:28:18.533Z,47.17
2019-02-27T06:30:47.911Z,54.50
2019-02-27T06:33:19.317Z,47.80
2019-02-27T06:35:51.010Z,47.13
2019-02-27T06:38:25.026Z,45.07
2019-02-27T06:40:55.655Z,47.83
2019-02-27T06:43:27.311Z,43.40
2019-02-27T06:45:59.308Z,52.27
2019-02-27T06:48:30.617Z,52.37
2019-02-27T06:51:01.913Z,52.47
2019-02-27T06:53:33.236Z,51.87
2019-02-27T06:56:04.609Z,50.23
2019-02-27T06:58:35.885Z,46.93
2019-02-27T07:01:09.815Z,50.40
2019-02-27T07:03:41.243Z,55.30
2019-02-27T07:06:12.549Z,44.43
2019-02-27T07:08:43.904Z,45.13
2019-02-27T07:11:15.611Z,42.37
2019-02-27T07:13:47.292Z,44.63
2019-02-27T07:16:20.540Z,42.90
2019-02-27T07:18:51.682Z,50.25
2019-02-27T07:21:23.464Z,44.60
2019-02-27T07:23:58.495Z,48.13
2019-02-27T07:26:28.592Z,48.45
2019-02-27T07:28:59.925Z,46.13
2019-02-27T07:31:37.242Z,49.10
2019-02-27T07:34:08.619Z,45.87
2019-02-27T07:36:40.287Z,49.77
2019-02-27T07:39:11.630Z,49.17
2019-02-27T07:41:43.353Z,44.77
2019-02-27T07:44:14.603Z,43.85
2019-02-27T07:46:46.846Z,50.00
2019-02-27T07:49:18.520Z,45.80
2019-02-27T07:51:49.882Z,40.97
2019-02-27T07:54:21.588Z,42.88
2019-02-27T07:56:52.984Z,43.17
2019-02-27T07:59:24.281Z,42.40
2019-02-27T08:01:55.588Z,42.50
2019-02-27T08:04:27.995Z,39.03
2019-02-27T08:06:59.485Z,44.30
2019-02-27T08:09:30.847Z,46.00
2019-02-27T08:12:02.240Z,44.10
2019-02-27T08:14:36.832Z,36.70
2019-02-27T08:17:17.366Z,43.67
2019-02-27T08:19:42.868Z,44.27
2019-02-27T08:22:16.918Z,43.00
2019-02-27T08:24:49.384Z,39.27
2019-02-27T08:27:21.075Z,43.17
2019-02-27T08:29:53.243Z,37.20
2019-02-27T08:32:25.276Z,46.50
2019-02-27T08:34:56.602Z,43.00
2019-02-27T08:37:28.108Z,40.93
2019-02-27T08:40:00.296Z,51.97
2019-02-27T08:42:31.992Z,40.43
2019-02-27T08:45:04.061Z,46.23
2019-02-27T08:47:35.743Z,41.93
2019-02-27T08:50:10.545Z,33.03
2019-02-27T08:52:44.293Z,37.50
2019-02-27T08:55:19.946Z,36.70
2019-02-27T08:57:49.978Z,34.30
2019-02-27T09:00:23.505Z,39.13
2019-02-27T09:02:55.847Z,34.53
2019-02-27T09:05:27.798Z,31.00
2019-02-27T09:07:59.534Z,32.45
2019-02-27T09:10:31.255Z,34.47
2019-02-27T09:13:05.821Z,34.07
2019-02-27T09:15:35.580Z,32.40
2019-02-27T09:18:06.918Z,32.30
2019-02-27T09:20:38.356Z,34.00
2019-02-27T09:23:09.660Z,33.07
2019-02-27T09:25:42.314Z,28.97
2019-02-27T09:28:14.154Z,31.00
2019-02-27T09:30:45.481Z,30.07
2019-02-27T09:33:20.199Z,36.13
2019-02-27T09:35:50.755Z,28.13
2019-02-27T09:38:24.340Z,30.23
2019-02-27T09:40:55.734Z,30.40
2019-02-27T09:43:27.951Z,29.47
2019-02-27T09:45:59.608Z,27.60
2019-02-27T09:48:33.471Z,27.03
2019-02-27T09:51:04.617Z,30.32
2019-02-27T09:53:36.862Z,30.20
2019-02-27T09:56:12.560Z,28.23
2019-02-27T09:58:49.125Z,25.17
2019-02-27T10:01:23.172Z,23.70
2019-02-27T10:03:56.265Z,25.23
2019-02-27T10:06:30.121Z,24.87
2019-02-27T10:09:01.519Z,25.73
2019-02-27T10:11:33.434Z,25.02
2019-02-27T10:14:04.841Z,23.10
2019-02-27T10:16:36.487Z,24.02
2019-02-27T10:19:07.802Z,28.03
2019-02-27T10:21:41.273Z,26.63
2019-02-27T10:24:12.704Z,30.65
2019-02-27T10:26:44.079Z,23.77
2019-02-27T10:29:15.451Z,24.93
2019-02-27T10:31:47.040Z,22.87
2019-02-27T10:34:18.318Z,21.93
2019-02-27T10:36:49.690Z,22.50
2019-02-27T10:39:21.049Z,20.10
2019-02-27T10:41:52.651Z,23.53
2019-02-27T10:44:24.374Z,21.13
2019-02-27T10:46:59.854Z,24.30
2019-02-27T10:49:31.195Z,23.13
2019-02-27T10:52:02.884Z,22.77
2019-02-27T10:54:37.031Z,24.17
2019-02-27T10:57:08.886Z,21.10
2019-02-27T10:59:40.407Z,20.67
2019-02-27T11:02:12.398Z,23.22
2019-02-27T11:04:44.782Z,22.77
2019-02-27T11:07:16.823Z,22.37
2019-02-27T11:09:48.845Z,21.67
2019-02-27T11:12:21.224Z,23.62
2019-02-27T11:14:52.531Z,19.90
2019-02-27T11:17:24.384Z,22.03
2019-02-27T11:19:55.673Z,21.13
2019-02-27T11:22:31.642Z,20.87
2019-02-27T11:25:01.348Z,19.33
2019-02-27T11:27:33.002Z,21.47
2019-02-27T11:30:04.725Z,19.53
2019-02-27T11:32:37.489Z,25.02
2019-02-27T11:35:08.901Z,19.90
2019-02-27T11:37:41.230Z,19.70
2019-02-27T11:40:18.875Z,14.63
2019-02-27T11:42:50.126Z,18.27
2019-02-27T11:45:24.721Z,18.57
2019-02-27T11:47:54.987Z,19.30
2019-02-27T11:50:26.330Z,18.03
2019-02-27T11:53:01.768Z,16.62
2019-02-27T11:55:31.030Z,18.53
2019-02-27T11:58:05.381Z,16.70
2019-02-27T12:00:35.291Z,16.93
2019-02-27T12:03:08.613Z,14.60
2019-02-27T12:05:40.240Z,15.97
2019-02-27T12:08:12.514Z,12.80
2019-02-27T12:10:44.200Z,12.43
2019-02-27T12:13:15.496Z,14.53
2019-02-27T12:15:47.232Z,14.30
2019-02-27T12:18:18.540Z,13.17
2019-02-27T12:20:53.251Z,11.97
2019-02-27T12:23:23.839Z,13.87
2019-02-27T12:25:55.517Z,15.60
2019-02-27T12:28:26.826Z,10.72
2019-02-27T12:30:58.860Z,13.13
2019-02-27T12:33:30.592Z,13.23
2019-02-27T12:36:01.950Z,10.53
2019-02-27T12:38:33.760Z,11.53
2019-02-27T12:41:05.079Z,12.47
2019-02-27T12:43:36.364Z,9.77
2019-02-27T12:46:09.673Z,12.03
2019-02-27T12:48:41.141Z,13.37
2019-02-27T12:51:12.778Z,10.40
2019-02-27T12:53:44.685Z,7.42
2019-02-27T12:56:15.982Z,9.93
2019-02-27T12:58:47.910Z,11.93
2019-02-27T13:01:19.918Z,8.18
2019-02-27T13:03:51.503Z,8.23
2019-02-27T13:06:22.818Z,10.27
2019-02-27T13:08:55.841Z,8.38
2019-02-27T13:11:27.327Z,10.60
2019-02-27T13:13:59.708Z,10.33
2019-02-27T13:16:32.048Z,12.60
2019-02-27T13:19:06.284Z,9.63
2019-02-27T13:21:36.709Z,8.23
2019-02-27T13:24:08.569Z,10.67
2019-02-27T13:26:40.612Z,10.33
2019-02-27T13:29:11.926Z,12.27
2019-02-27T13:31:43.332Z,11.80
2019-02-27T13:34:14.654Z,11.93
2019-02-27T13:36:46.486Z,8.78
2019-02-27T13:39:18.134Z,9.77
2019-02-27T13:41:50.691Z,9.70
2019-02-27T13:44:22.427Z,13.35
2019-02-27T13:46:57.617Z,9.93
2019-02-27T13:49:29.251Z,9.73
2019-02-27T13:52:01.292Z,10.37
2019-02-27T13:54:37.957Z,9.50
2019-02-27T13:57:06.234Z,6.90
2019-02-27T13:59:37.453Z,5.80
2019-02-27T14:02:11.352Z,6.27
2019-02-27T14:04:42.286Z,8.70
2019-02-27T14:07:13.571Z,5.70
2019-02-27T14:09:44.994Z,6.57
2019-02-27T14:12:16.581Z,6.90
2019-02-27T14:14:50.166Z,5.77
2019-02-27T14:17:21.559Z,6.37
2019-02-27T14:19:55.272Z,6.07
2019-02-27T14:22:25.922Z,5.57
2019-02-27T14:24:58.378Z,6.37
2019-02-27T14:27:29.652Z,6.10
2019-02-27T14:30:03.299Z,5.90
2019-02-27T14:32:34.284Z,5.97
2019-02-27T14:35:05.892Z,6.78
2019-02-27T14:37:37.253Z,7.05
2019-02-27T14:40:12.078Z,6.77
2019-02-27T14:42:43.428Z,5.07
2019-02-27T14:45:17.602Z,9.07
2019-02-27T14:47:49.017Z,4.20
2019-02-27T14:50:21.813Z,5.67
2019-02-27T14:52:53.108Z,5.33
2019-02-27T14:55:24.578Z,7.33
2019-02-27T14:57:55.960Z,4.93
2019-02-27T15:00:30.008Z,5.30
2019-02-27T15:03:01.479Z,5.23
2019-02-27T15:05:33.517Z,4.90
2019-02-27T15:08:05.079Z,5.13
2019-02-27T15:10:40.068Z,4.47
2019-02-27T15:13:09.862Z,6.10
2019-02-27T15:15:43.737Z,4.97
2019-02-27T15:18:14.177Z,7.53
2019-02-27T15:20:45.793Z,8.27
2019-02-27T15:23:17.108Z,7.53
2019-02-27T15:25:48.812Z,10.60
2019-02-27T15:28:20.103Z,7.10
2019-02-27T15:30:51.379Z,8.17
2019-02-27T15:33:23.176Z,5.87
2019-02-27T15:35:55.650Z,5.00
2019-02-27T15:38:27.863Z,5.53
2019-02-27T15:41:02.403Z,6.60
2019-02-27T15:43:32.420Z,5.60
2019-02-27T15:46:04.008Z,6.43
2019-02-27T15:48:38.176Z,5.47
2019-02-27T15:51:10.273Z,8.18
2019-02-27T15:53:41.573Z,6.87
2019-02-27T15:56:13.141Z,6.10
2019-02-27T15:58:44.426Z,8.75
2019-02-27T16:01:15.752Z,4.10
2019-02-27T16:03:47.983Z,8.75
2019-02-27T16:06:19.268Z,9.40
2019-02-27T16:08:51.177Z,6.27
2019-02-27T16:11:22.567Z,6.97
2019-02-27T16:13:54.703Z,6.20
2019-02-27T16:16:26.707Z,6.78
2019-02-27T16:26:02.005Z,7.23
2019-02-27T16:28:33.262Z,8.95
2019-02-27T16:31:06.183Z,7.75
2019-02-27T16:33:38.470Z,8.27
2019-02-27T16:36:09.809Z,9.90
2019-02-27T16:38:41.355Z,11.83
2019-02-27T16:41:12.812Z,15.67
2019-02-27T16:43:47.700Z,9.57
2019-02-27T16:46:17.138Z,12.73
2019-02-27T16:48:48.486Z,8.50
2019-02-27T16:51:20.300Z,8.00
2019-02-27T16:53:52.557Z,10.50
2019-02-27T16:56:24.472Z,10.75
2019-02-27T16:58:56.172Z,10.70
2019-02-27T17:01:29.506Z,16.53
2019-02-27T17:04:01.469Z,11.57
2019-02-27T17:06:33.143Z,13.88
2019-02-27T17:09:09.637Z,11.97
2019-02-27T17:11:39.188Z,13.03
2019-02-27T17:14:10.774Z,16.13
2019-02-27T17:16:44.879Z,15.57
2019-02-27T17:19:15.891Z,14.60
2019-02-27T17:21:47.464Z,16.60
2019-02-27T17:24:21.894Z,15.87
2019-02-27T17:26:53.125Z,21.80
2019-02-27T17:29:26.383Z,16.57
2019-02-27T17:31:57.977Z,18.47
2019-02-27T17:34:29.764Z,18.60
2019-02-27T17:37:03.631Z,23.30
2019-02-27T17:39:34.637Z,21.43
2019-02-27T17:42:05.985Z,21.23
2019-02-27T17:44:37.751Z,16.95
2019-02-27T17:47:09.757Z,18.10
2019-02-27T17:49:41.079Z,20.27
2019-02-27T17:52:14.817Z,18.73
2019-02-27T17:54:45.934Z,16.53
2019-02-27T17:57:17.217Z,19.43
2019-02-27T17:59:48.992Z,17.13
2019-02-27T18:02:20.290Z,20.07
2019-02-27T18:04:53.777Z,18.43
2019-02-27T18:07:32.023Z,21.43
2019-02-27T18:09:58.463Z,22.47
2019-02-27T18:12:31.153Z,22.42
2019-02-27T18:15:02.457Z,28.17
2019-02-27T18:17:34.957Z,26.70
2019-02-27T18:20:07.826Z,21.30
2019-02-27T18:22:39.113Z,22.30
2019-02-27T18:25:11.026Z,21.80
2019-02-27T18:27:42.519Z,19.03
2019-02-27T18:30:15.488Z,21.23
2019-02-27T18:32:48.397Z,22.13
2019-02-27T18:35:19.786Z,21.37
2019-02-27T18:37:54.374Z,22.27
2019-02-27T18:40:24.379Z,21.47
2019-02-27T18:42:56.705Z,21.35
2019-02-27T18:45:28.167Z,20.73
2019-02-27T18:48:00.085Z,23.83
2019-02-27T18:50:31.436Z,21.50
2019-02-27T18:53:03.373Z,23.50
2019-02-27T18:55:34.684Z,26.65
2019-02-27T18:58:06.526Z,23.17
2019-02-27T19:00:37.880Z,24.90
2019-02-27T19:03:09.437Z,23.23
2019-02-27T19:05:42.037Z,27.13
2019-02-27T19:08:13.703Z,26.33
2019-02-27T19:10:45.605Z,23.50
2019-02-27T19:13:17.224Z,22.75
2019-02-27T19:15:48.512Z,27.20
2019-02-27T19:18:20.152Z,23.80
2019-02-27T19:20:51.518Z,23.47
2019-02-27T19:23:25.679Z,24.07
2019-02-27T19:25:57.017Z,22.50
2019-02-27T19:28:28.438Z,21.63
2019-02-27T19:31:01.051Z,21.03
2019-02-27T19:33:35.869Z,22.00
2019-02-27T19:36:05.594Z,23.42
2019-02-27T19:38:37.529Z,28.27
2019-02-27T19:41:08.974Z,21.13
2019-02-27T19:43:40.570Z,21.12
2019-02-27T19:46:11.829Z,22.53
2019-02-27T19:48:43.657Z,21.25
2019-02-27T19:51:17.078Z,27.13
2019-02-27T19:53:48.310Z,25.40
2019-02-27T19:56:19.971Z,24.90
2019-02-27T19:58:52.210Z,21.17
2019-02-27T20:01:24.079Z,25.20
2019-02-27T20:03:55.442Z,22.07
2019-02-27T20:06:27.968Z,24.50
2019-02-27T20:08:59.966Z,20.63
2019-02-27T20:11:31.237Z,23.60
2019-02-27T20:14:03.577Z,25.82
2019-02-27T20:16:35.711Z,23.33
2019-02-27T20:19:07.023Z,22.97
2019-02-27T20:21:38.405Z,22.20
2019-02-27T20:24:14.498Z,23.00
2019-02-27T20:26:44.728Z,22.65
2019-02-27T20:29:16.549Z,25.97
2019-02-27T20:31:47.931Z,19.83
2019-02-27T20:34:19.553Z,20.43
2019-02-27T20:36:51.079Z,19.60
2019-02-27T20:39:24.429Z,23.38
2019-02-27T20:41:56.181Z,25.07
2019-02-27T20:44:27.958Z,19.47
2019-02-27T20:46:59.275Z,17.67
2019-02-27T20:49:30.834Z,18.20
2019-02-27T20:52:02.193Z,22.03
2019-02-27T20:54:34.065Z,16.30
2019-02-27T20:57:08.194Z,18.73
2019-02-27T20:59:39.142Z,15.97
2019-02-27T21:02:10.468Z,21.13
2019-02-27T21:04:41.812Z,20.33
2019-02-27T21:07:21.894Z,19.30
2019-02-27T21:09:46.513Z,19.25
2019-02-27T21:12:17.821Z,19.07
2019-02-27T21:14:49.166Z,17.02
2019-02-27T21:17:21.801Z,20.80
2019-02-27T21:19:53.935Z,22.03
2019-02-27T21:22:27.795Z,20.72
2019-02-27T21:24:59.339Z,18.43
2019-02-27T21:27:33.101Z,20.13
2019-02-27T21:30:03.948Z,19.27
2019-02-27T21:32:36.129Z,18.03
2019-02-27T21:35:08.636Z,21.03
2019-02-27T21:37:44.628Z,23.02
2019-02-27T21:40:14.816Z,19.87
2019-02-27T21:42:46.225Z,17.80
2019-02-27T21:45:18.523Z,21.80
2019-02-27T21:47:51.709Z,18.80
2019-02-27T21:50:23.064Z,17.47
2019-02-27T21:52:55.765Z,17.00
2019-02-27T21:55:27.479Z,18.90
2019-02-27T21:57:59.567Z,16.57
2019-02-27T22:00:31.848Z,20.20
2019-02-27T22:03:06.570Z,18.37
2019-02-27T22:05:42.989Z,19.40
2019-02-27T22:08:14.659Z,18.37
2019-02-27T22:10:45.983Z,23.25
2019-02-27T22:13:28.602Z,18.37
2019-02-27T22:15:50.272Z,15.37
2019-02-27T22:18:21.864Z,18.80
2019-02-27T22:20:53.844Z,17.92
2019-02-27T22:23:25.823Z,21.17
2019-02-27T22:25:57.509Z,18.25
2019-02-27T22:28:29.565Z,16.00
2019-02-27T22:31:06.748Z,18.23
2019-02-27T22:33:37.701Z,17.00
2019-02-27T22:36:12.679Z,19.02
2019-02-27T22:38:43.460Z,17.00
2019-02-27T22:41:15.710Z,17.77
2019-02-27T22:43:47.043Z,21.33
2019-02-27T22:46:18.411Z,19.63
2019-02-27T22:48:52.857Z,16.17
2019-02-27T22:51:24.176Z,18.37
2019-02-27T22:53:55.802Z,19.13
2019-02-27T22:56:27.189Z,18.53
2019-02-27T22:58:59.392Z,18.50
2019-02-27T23:01:51.265Z,16.70
2019-02-27T23:04:22.885Z,20.73
2019-02-27T23:06:54.471Z,18.87
2019-02-27T23:09:26.486Z,19.67
2019-02-27T23:11:57.790Z,17.30
2019-02-27T23:14:29.382Z,19.77
2019-02-27T23:17:01.335Z,18.33
2019-02-27T23:19:32.901Z,27.63
2019-02-27T23:22:04.625Z,20.43
2019-02-27T23:24:36.586Z,18.20
2019-02-27T23:27:08.496Z,19.50
2019-02-27T23:29:40.646Z,18.90
2019-02-27T23:32:12.137Z,17.67
2019-02-27T23:34:44.584Z,21.17
2019-02-27T23:37:16.862Z,17.73
2019-02-27T23:39:48.533Z,18.10
2019-02-27T23:42:20.162Z,21.87
2019-02-27T23:44:51.786Z,18.53
2019-02-27T23:47:23.421Z,20.32
2019-02-27T23:49:54.749Z,19.77
2019-02-27T23:52:27.019Z,21.60
2019-02-27T23:54:58.975Z,15.93
2019-02-27T23:57:30.646Z,18.70
